LGR888 RJTF-RJTH
Flight info
| Callsign | LGR888 |
|---|---|
| Flight time | 1h 39m |
| Altitude | 5000 |
| Route | KOSKA Y588 XAC V18 SANGO |
| Aircraft | C172/L-SFG/C |
Departure
| Time | 2026-04-22 19:01 |
|---|---|
| Airport | Chofu Airport (RJTF) |
Arrival
| Time | 2026-04-22 20:40 |
|---|---|
| Airport | Hachijojima Airport (RJTH) |
| Time | Latitude | Longitude | Altitude | Speed | Heading |
|---|---|---|---|---|---|
| 2026-04-22 18:43 | 35.67399 | 139.52789 | 136 ft | 0 kts | 347° |
| 2026-04-22 18:56 | 35.67415 | 139.52797 | 139 ft | 2 kts | 271° |
| 2026-04-22 18:56 | 35.67412 | 139.52779 | 140 ft | 4 kts | 267° |
| 2026-04-22 18:57 | 35.67410 | 139.52759 | 141 ft | 0 kts | 309° |
| 2026-04-22 18:57 | 35.67427 | 139.52750 | 141 ft | 2 kts | 332° |
| 2026-04-22 18:57 | 35.67436 | 139.52748 | 143 ft | 2 kts | 342° |
| 2026-04-22 18:57 | 35.67459 | 139.52743 | 145 ft | 3 kts | 340° |
| 2026-04-22 18:58 | 35.67481 | 139.52731 | 145 ft | 3 kts | 320° |
| 2026-04-22 18:58 | 35.67491 | 139.52716 | 146 ft | 4 kts | 310° |
| 2026-04-22 18:58 | 35.67495 | 139.52712 | 140 ft | 0 kts | 255° |
| 2026-04-22 19:00 | 35.67484 | 139.52684 | 147 ft | 3 kts | 179° |
| 2026-04-22 19:00 | 35.67340 | 139.52722 | 219 ft | 42 kts | 155° |
| 2026-04-22 19:00 | 35.67016 | 139.52911 | 490 ft | 54 kts | 134° |
| 2026-04-22 19:01 | 35.66842 | 139.53422 | 548 ft | 90 kts | 84° |
| 2026-04-22 19:01 | 35.66864 | 139.54292 | 425 ft | 113 kts | 73° |
| 2026-04-22 19:01 | 35.66977 | 139.55016 | 835 ft | 62 kts | 72° |
| 2026-04-22 19:01 | 35.66929 | 139.55602 | 887 ft | 94 kts | 100° |
| 2026-04-22 19:02 | 35.66700 | 139.56387 | 926 ft | 104 kts | 105° |
| 2026-04-22 19:02 | 35.66484 | 139.57196 | 1008 ft | 104 kts | 103° |
| 2026-04-22 19:02 | 35.66295 | 139.57997 | 1099 ft | 103 kts | 101° |
| 2026-04-22 19:02 | 35.66130 | 139.58775 | 1188 ft | 102 kts | 100° |
| 2026-04-22 19:03 | 35.65861 | 139.59592 | 1260 ft | 106 kts | 123° |
| 2026-04-22 19:03 | 35.65243 | 139.60060 | 1318 ft | 108 kts | 163° |
| 2026-04-22 19:03 | 35.64502 | 139.60092 | 1407 ft | 107 kts | 180° |
| 2026-04-22 19:03 | 35.63821 | 139.60066 | 1502 ft | 106 kts | 181° |
| 2026-04-22 19:04 | 35.63132 | 139.60040 | 1590 ft | 106 kts | 181° |
| 2026-04-22 19:04 | 35.62423 | 139.60011 | 1684 ft | 105 kts | 181° |
| 2026-04-22 19:04 | 35.61736 | 139.59987 | 1775 ft | 105 kts | 181° |
| 2026-04-22 19:04 | 35.61052 | 139.59963 | 1870 ft | 105 kts | 181° |
| 2026-04-22 19:05 | 35.60326 | 139.59935 | 1967 ft | 105 kts | 180° |
| 2026-04-22 19:05 | 35.59599 | 139.59909 | 2066 ft | 104 kts | 179° |
| 2026-04-22 19:05 | 35.58871 | 139.59883 | 2165 ft | 104 kts | 179° |
| 2026-04-22 19:05 | 35.58174 | 139.59860 | 2257 ft | 104 kts | 178° |
| 2026-04-22 19:06 | 35.57473 | 139.59837 | 2352 ft | 103 kts | 178° |
| 2026-04-22 19:06 | 35.56788 | 139.59816 | 2447 ft | 103 kts | 177° |
| 2026-04-22 19:06 | 35.56119 | 139.59795 | 2538 ft | 102 kts | 178° |
| 2026-04-22 19:07 | 35.54712 | 139.59746 | 2732 ft | 100 kts | 177° |
| 2026-04-22 19:07 | 35.54042 | 139.59724 | 2827 ft | 98 kts | 178° |
| 2026-04-22 19:07 | 35.53365 | 139.59703 | 2924 ft | 96 kts | 178° |
| 2026-04-22 19:07 | 35.52714 | 139.59682 | 3020 ft | 95 kts | 178° |
| 2026-04-22 19:08 | 35.52055 | 139.59657 | 3119 ft | 94 kts | 178° |
| 2026-04-22 19:08 | 35.51440 | 139.59636 | 3211 ft | 93 kts | 178° |
| 2026-04-22 19:08 | 35.50837 | 139.59621 | 3303 ft | 92 kts | 179° |
| 2026-04-22 19:08 | 35.50224 | 139.59604 | 3397 ft | 91 kts | 181° |
| 2026-04-22 19:09 | 35.49642 | 139.59586 | 3486 ft | 91 kts | 182° |
| 2026-04-22 19:09 | 35.49070 | 139.59564 | 3573 ft | 90 kts | 182° |
| 2026-04-22 19:09 | 35.48496 | 139.59541 | 3660 ft | 90 kts | 182° |
| 2026-04-22 19:09 | 35.47929 | 139.59520 | 3747 ft | 90 kts | 182° |
| 2026-04-22 19:10 | 35.47361 | 139.59499 | 3837 ft | 91 kts | 181° |
| 2026-04-22 19:10 | 35.46775 | 139.59480 | 3926 ft | 90 kts | 182° |
| 2026-04-22 19:10 | 35.46163 | 139.59459 | 4023 ft | 90 kts | 182° |
| 2026-04-22 19:10 | 35.45539 | 139.59438 | 4121 ft | 90 kts | 182° |
| 2026-04-22 19:11 | 35.44938 | 139.59419 | 4215 ft | 90 kts | 182° |
| 2026-04-22 19:11 | 35.44381 | 139.59401 | 4301 ft | 89 kts | 183° |
| 2026-04-22 19:11 | 35.43781 | 139.59380 | 4395 ft | 89 kts | 184° |
| 2026-04-22 19:11 | 35.43142 | 139.59357 | 4514 ft | 95 kts | 185° |
| 2026-04-22 19:12 | 35.42448 | 139.59326 | 4612 ft | 104 kts | 185° |
| 2026-04-22 19:12 | 35.41726 | 139.59300 | 4699 ft | 105 kts | 183° |
| 2026-04-22 19:12 | 35.41063 | 139.59280 | 4787 ft | 104 kts | 184° |
| 2026-04-22 19:12 | 35.40403 | 139.59256 | 4856 ft | 106 kts | 183° |
| 2026-04-22 19:13 | 35.39715 | 139.59233 | 4866 ft | 110 kts | 183° |
| 2026-04-22 19:13 | 35.38970 | 139.59210 | 4869 ft | 113 kts | 183° |
| 2026-04-22 19:13 | 35.38199 | 139.59186 | 4868 ft | 114 kts | 182° |
| 2026-04-22 19:13 | 35.37400 | 139.59160 | 4867 ft | 115 kts | 183° |
| 2026-04-22 19:14 | 35.36604 | 139.59134 | 4867 ft | 115 kts | 182° |
| 2026-04-22 19:14 | 35.35809 | 139.59106 | 4868 ft | 115 kts | 182° |
| 2026-04-22 19:14 | 35.35028 | 139.59082 | 4868 ft | 115 kts | 182° |
| 2026-04-22 19:14 | 35.34230 | 139.59056 | 4868 ft | 115 kts | 183° |
| 2026-04-22 19:15 | 35.33692 | 139.59038 | 4866 ft | 115 kts | 182° |
| 2026-04-22 19:15 | 35.32623 | 139.59001 | 4867 ft | 116 kts | 182° |
| 2026-04-22 19:15 | 35.31814 | 139.58974 | 4863 ft | 115 kts | 182° |
| 2026-04-22 19:15 | 35.31028 | 139.58948 | 4865 ft | 112 kts | 182° |
| 2026-04-22 19:16 | 35.30246 | 139.58922 | 4867 ft | 111 kts | 181° |
| 2026-04-22 19:16 | 35.29478 | 139.58897 | 4866 ft | 110 kts | 182° |
| 2026-04-22 19:16 | 35.28713 | 139.58874 | 4866 ft | 109 kts | 182° |
| 2026-04-22 19:16 | 35.27945 | 139.58849 | 4865 ft | 109 kts | 182° |
| 2026-04-22 19:17 | 35.27182 | 139.58821 | 4866 ft | 110 kts | 182° |
| 2026-04-22 19:17 | 35.26423 | 139.58795 | 4866 ft | 110 kts | 182° |
| 2026-04-22 19:17 | 35.25652 | 139.58749 | 4854 ft | 111 kts | 190° |
| 2026-04-22 19:17 | 35.24906 | 139.58533 | 4863 ft | 109 kts | 195° |
| 2026-04-22 19:18 | 35.24158 | 139.58302 | 4861 ft | 109 kts | 195° |
| 2026-04-22 19:18 | 35.23427 | 139.58070 | 4861 ft | 109 kts | 195° |
| 2026-04-22 19:18 | 35.22685 | 139.57835 | 4861 ft | 110 kts | 195° |
| 2026-04-22 19:18 | 35.21941 | 139.57596 | 4861 ft | 111 kts | 195° |
| 2026-04-22 19:19 | 35.21191 | 139.57356 | 4862 ft | 111 kts | 196° |
| 2026-04-22 19:19 | 35.20439 | 139.57115 | 4862 ft | 111 kts | 195° |
| 2026-04-22 19:19 | 35.19688 | 139.56877 | 4860 ft | 110 kts | 195° |
| 2026-04-22 19:19 | 35.18948 | 139.56639 | 4860 ft | 110 kts | 195° |
| 2026-04-22 19:20 | 35.18203 | 139.56401 | 4860 ft | 110 kts | 195° |
| 2026-04-22 19:20 | 35.17453 | 139.56163 | 4859 ft | 110 kts | 195° |
| 2026-04-22 19:20 | 35.16718 | 139.55933 | 4859 ft | 109 kts | 195° |
| 2026-04-22 19:20 | 35.15982 | 139.55698 | 4859 ft | 109 kts | 195° |
| 2026-04-22 19:21 | 35.15249 | 139.55464 | 4858 ft | 108 kts | 195° |
| 2026-04-22 19:21 | 35.14518 | 139.55231 | 4860 ft | 108 kts | 196° |
| 2026-04-22 19:21 | 35.13789 | 139.54999 | 4860 ft | 108 kts | 195° |
| 2026-04-22 19:21 | 35.13055 | 139.54765 | 4859 ft | 109 kts | 195° |
| 2026-04-22 19:22 | 35.12328 | 139.54532 | 4860 ft | 109 kts | 195° |
| 2026-04-22 19:22 | 35.11580 | 139.54291 | 4860 ft | 110 kts | 195° |
| 2026-04-22 19:22 | 35.10843 | 139.54057 | 4857 ft | 109 kts | 196° |
| 2026-04-22 19:22 | 35.10105 | 139.53821 | 4855 ft | 110 kts | 196° |
| 2026-04-22 19:23 | 35.09366 | 139.53581 | 4857 ft | 110 kts | 195° |
| 2026-04-22 19:23 | 35.08621 | 139.53345 | 4856 ft | 109 kts | 195° |
| 2026-04-22 19:23 | 35.07886 | 139.53111 | 4854 ft | 109 kts | 196° |
| 2026-04-22 19:23 | 35.07158 | 139.52876 | 4854 ft | 108 kts | 196° |
| 2026-04-22 19:24 | 35.06425 | 139.52643 | 4856 ft | 108 kts | 195° |
| 2026-04-22 19:24 | 35.05688 | 139.52406 | 4858 ft | 108 kts | 196° |
| 2026-04-22 19:24 | 35.04956 | 139.52171 | 4855 ft | 109 kts | 195° |
| 2026-04-22 19:24 | 35.04231 | 139.51942 | 4858 ft | 108 kts | 196° |
| 2026-04-22 19:25 | 35.03502 | 139.51708 | 4857 ft | 109 kts | 196° |
| 2026-04-22 19:25 | 35.02766 | 139.51474 | 4854 ft | 108 kts | 195° |
| 2026-04-22 19:25 | 35.02036 | 139.51239 | 4855 ft | 109 kts | 196° |
| 2026-04-22 19:25 | 35.01293 | 139.51001 | 4855 ft | 109 kts | 195° |
| 2026-04-22 19:26 | 35.00557 | 139.50766 | 4856 ft | 110 kts | 196° |
| 2026-04-22 19:26 | 34.99811 | 139.50528 | 4857 ft | 110 kts | 196° |
| 2026-04-22 19:26 | 34.99062 | 139.50290 | 4857 ft | 110 kts | 196° |
| 2026-04-22 19:26 | 34.98329 | 139.50055 | 4857 ft | 110 kts | 196° |
| 2026-04-22 19:27 | 34.97601 | 139.49759 | 4836 ft | 109 kts | 210° |
| 2026-04-22 19:27 | 34.96902 | 139.49455 | 4857 ft | 108 kts | 194° |
| 2026-04-22 19:27 | 34.96162 | 139.49252 | 4859 ft | 109 kts | 194° |
| 2026-04-22 19:27 | 34.95425 | 139.49045 | 4859 ft | 108 kts | 195° |
| 2026-04-22 19:28 | 34.94688 | 139.48831 | 4861 ft | 108 kts | 195° |
| 2026-04-22 19:28 | 34.93956 | 139.48613 | 4865 ft | 108 kts | 195° |
| 2026-04-22 19:28 | 34.93223 | 139.48392 | 4864 ft | 108 kts | 195° |
| 2026-04-22 19:28 | 34.92489 | 139.48166 | 4867 ft | 109 kts | 195° |
| 2026-04-22 19:29 | 34.91746 | 139.47937 | 4866 ft | 109 kts | 195° |
| 2026-04-22 19:29 | 34.91006 | 139.47707 | 4866 ft | 109 kts | 196° |
| 2026-04-22 19:29 | 34.90263 | 139.47472 | 4868 ft | 110 kts | 196° |
| 2026-04-22 19:29 | 34.89523 | 139.47238 | 4868 ft | 110 kts | 196° |
| 2026-04-22 19:30 | 34.89028 | 139.47082 | 4870 ft | 111 kts | 196° |
| 2026-04-22 19:30 | 34.88027 | 139.46768 | 4869 ft | 110 kts | 196° |
| 2026-04-22 19:30 | 34.87287 | 139.46532 | 4870 ft | 110 kts | 196° |
| 2026-04-22 19:30 | 34.86548 | 139.46297 | 4870 ft | 110 kts | 196° |
| 2026-04-22 19:31 | 34.85803 | 139.46062 | 4874 ft | 109 kts | 196° |
| 2026-04-22 19:31 | 34.85075 | 139.45830 | 4876 ft | 109 kts | 196° |
| 2026-04-22 19:31 | 34.84332 | 139.45595 | 4875 ft | 109 kts | 195° |
| 2026-04-22 19:31 | 34.83598 | 139.45361 | 4876 ft | 110 kts | 196° |
| 2026-04-22 19:32 | 34.82848 | 139.45123 | 4872 ft | 110 kts | 196° |
| 2026-04-22 19:32 | 34.82112 | 139.44890 | 4872 ft | 110 kts | 196° |
| 2026-04-22 19:32 | 34.81372 | 139.44655 | 4870 ft | 110 kts | 196° |
| 2026-04-22 19:32 | 34.80623 | 139.44417 | 4866 ft | 110 kts | 196° |
| 2026-04-22 19:33 | 34.79882 | 139.44182 | 4864 ft | 111 kts | 196° |
| 2026-04-22 19:33 | 34.79127 | 139.43941 | 4859 ft | 111 kts | 196° |
| 2026-04-22 19:33 | 34.78352 | 139.43695 | 4856 ft | 110 kts | 196° |
| 2026-04-22 19:33 | 34.77615 | 139.43462 | 4856 ft | 110 kts | 196° |
| 2026-04-22 19:34 | 34.76867 | 139.43222 | 4856 ft | 110 kts | 196° |
| 2026-04-22 19:34 | 34.76125 | 139.42989 | 4857 ft | 110 kts | 196° |
| 2026-04-22 19:34 | 34.75382 | 139.42750 | 4857 ft | 110 kts | 195° |
| 2026-04-22 19:34 | 34.74628 | 139.42514 | 4857 ft | 110 kts | 195° |
| 2026-04-22 19:35 | 34.73890 | 139.42279 | 4859 ft | 110 kts | 196° |
| 2026-04-22 19:35 | 34.73152 | 139.42046 | 4856 ft | 110 kts | 195° |
| 2026-04-22 19:35 | 34.72413 | 139.41809 | 4856 ft | 110 kts | 195° |
| 2026-04-22 19:35 | 34.71663 | 139.41573 | 4859 ft | 110 kts | 195° |
| 2026-04-22 19:36 | 34.70900 | 139.41559 | 4860 ft | 112 kts | 174° |
| 2026-04-22 19:36 | 34.70124 | 139.41721 | 4856 ft | 114 kts | 172° |
| 2026-04-22 19:36 | 34.69342 | 139.41891 | 4855 ft | 113 kts | 172° |
| 2026-04-22 19:36 | 34.68561 | 139.42064 | 4856 ft | 113 kts | 172° |
| 2026-04-22 19:37 | 34.67778 | 139.42238 | 4859 ft | 114 kts | 172° |
| 2026-04-22 19:37 | 34.67003 | 139.42416 | 4856 ft | 114 kts | 172° |
| 2026-04-22 19:37 | 34.66227 | 139.42590 | 4856 ft | 113 kts | 172° |
| 2026-04-22 19:37 | 34.65441 | 139.42770 | 4856 ft | 113 kts | 172° |
| 2026-04-22 19:38 | 34.64672 | 139.42947 | 4858 ft | 113 kts | 172° |
| 2026-04-22 19:38 | 34.63898 | 139.43123 | 4859 ft | 113 kts | 171° |
| 2026-04-22 19:38 | 34.63135 | 139.43300 | 4858 ft | 113 kts | 172° |
| 2026-04-22 19:38 | 34.62360 | 139.43478 | 4858 ft | 113 kts | 172° |
| 2026-04-22 19:39 | 34.61589 | 139.43658 | 4858 ft | 112 kts | 172° |
| 2026-04-22 19:39 | 34.60810 | 139.43835 | 4850 ft | 112 kts | 171° |
| 2026-04-22 19:39 | 34.60063 | 139.44012 | 4854 ft | 108 kts | 171° |
| 2026-04-22 19:39 | 34.59321 | 139.44183 | 4856 ft | 107 kts | 172° |
| 2026-04-22 19:40 | 34.58581 | 139.44356 | 4856 ft | 107 kts | 172° |
| 2026-04-22 19:40 | 34.57852 | 139.44524 | 4858 ft | 107 kts | 172° |
| 2026-04-22 19:40 | 34.57116 | 139.44694 | 4855 ft | 107 kts | 171° |
| 2026-04-22 19:40 | 34.56373 | 139.44862 | 4857 ft | 108 kts | 171° |
| 2026-04-22 19:41 | 34.55642 | 139.45035 | 4853 ft | 107 kts | 172° |
| 2026-04-22 19:41 | 34.54905 | 139.45203 | 4856 ft | 107 kts | 172° |
| 2026-04-22 19:41 | 34.54178 | 139.45369 | 4856 ft | 107 kts | 172° |
| 2026-04-22 19:41 | 34.53440 | 139.45543 | 4854 ft | 107 kts | 172° |
| 2026-04-22 19:42 | 34.52708 | 139.45708 | 4857 ft | 107 kts | 171° |
| 2026-04-22 19:42 | 34.51979 | 139.45877 | 4858 ft | 107 kts | 171° |
| 2026-04-22 19:42 | 34.51255 | 139.46045 | 4858 ft | 106 kts | 172° |
| 2026-04-22 19:42 | 34.50523 | 139.46214 | 4852 ft | 106 kts | 172° |
| 2026-04-22 19:43 | 34.49078 | 139.46547 | 4855 ft | 106 kts | 172° |
| 2026-04-22 19:43 | 34.48352 | 139.46713 | 4853 ft | 106 kts | 172° |
| 2026-04-22 19:43 | 34.47619 | 139.46883 | 4857 ft | 106 kts | 173° |
| 2026-04-22 19:44 | 34.46887 | 139.47052 | 4856 ft | 107 kts | 172° |
| 2026-04-22 19:44 | 34.46155 | 139.47217 | 4857 ft | 107 kts | 172° |
| 2026-04-22 19:44 | 34.45416 | 139.47389 | 4856 ft | 107 kts | 172° |
| 2026-04-22 19:44 | 34.44688 | 139.47557 | 4856 ft | 106 kts | 172° |
| 2026-04-22 19:45 | 34.43949 | 139.47725 | 4857 ft | 107 kts | 172° |
| 2026-04-22 19:45 | 34.43218 | 139.47894 | 4852 ft | 107 kts | 171° |
| 2026-04-22 19:45 | 34.42490 | 139.48062 | 4853 ft | 106 kts | 172° |
| 2026-04-22 19:45 | 34.41761 | 139.48228 | 4858 ft | 106 kts | 171° |
| 2026-04-22 19:46 | 34.41031 | 139.48399 | 4858 ft | 106 kts | 172° |
| 2026-04-22 19:46 | 34.40300 | 139.48567 | 4858 ft | 106 kts | 172° |
| 2026-04-22 19:46 | 34.39569 | 139.48734 | 4856 ft | 106 kts | 172° |
| 2026-04-22 19:46 | 34.38847 | 139.48901 | 4856 ft | 106 kts | 172° |
| 2026-04-22 19:47 | 34.38119 | 139.49068 | 4856 ft | 106 kts | 172° |
| 2026-04-22 19:47 | 34.37378 | 139.49236 | 4856 ft | 107 kts | 172° |
| 2026-04-22 19:47 | 34.36645 | 139.49405 | 4855 ft | 107 kts | 172° |
| 2026-04-22 19:47 | 34.35910 | 139.49574 | 4855 ft | 107 kts | 172° |
| 2026-04-22 19:48 | 34.35176 | 139.49741 | 4856 ft | 107 kts | 172° |
| 2026-04-22 19:48 | 34.34443 | 139.49910 | 4856 ft | 107 kts | 171° |
| 2026-04-22 19:48 | 34.33712 | 139.50078 | 4857 ft | 106 kts | 172° |
| 2026-04-22 19:48 | 34.32978 | 139.50244 | 4862 ft | 106 kts | 171° |
| 2026-04-22 19:49 | 34.32246 | 139.50412 | 4868 ft | 106 kts | 171° |
| 2026-04-22 19:49 | 34.31524 | 139.50578 | 4871 ft | 107 kts | 171° |
| 2026-04-22 19:49 | 34.30791 | 139.50748 | 4872 ft | 107 kts | 172° |
| 2026-04-22 19:49 | 34.30061 | 139.50915 | 4872 ft | 106 kts | 172° |
| 2026-04-22 19:50 | 34.29329 | 139.51085 | 4871 ft | 106 kts | 172° |
| 2026-04-22 19:50 | 34.28598 | 139.51251 | 4871 ft | 106 kts | 172° |
| 2026-04-22 19:50 | 34.27871 | 139.51417 | 4871 ft | 107 kts | 172° |
| 2026-04-22 19:50 | 34.27135 | 139.51585 | 4871 ft | 107 kts | 172° |
| 2026-04-22 19:51 | 34.26397 | 139.51753 | 4871 ft | 107 kts | 172° |
| 2026-04-22 19:51 | 34.25663 | 139.51923 | 4870 ft | 107 kts | 171° |
| 2026-04-22 19:51 | 34.24928 | 139.52089 | 4869 ft | 107 kts | 172° |
| 2026-04-22 19:51 | 34.24192 | 139.52258 | 4866 ft | 107 kts | 172° |
| 2026-04-22 19:52 | 34.23456 | 139.52426 | 4865 ft | 107 kts | 171° |
| 2026-04-22 19:52 | 34.22720 | 139.52594 | 4864 ft | 107 kts | 172° |
| 2026-04-22 19:52 | 34.21994 | 139.52760 | 4865 ft | 106 kts | 172° |
| 2026-04-22 19:52 | 34.21262 | 139.52928 | 4865 ft | 106 kts | 171° |
| 2026-04-22 19:53 | 34.20531 | 139.53098 | 4863 ft | 106 kts | 172° |
| 2026-04-22 19:53 | 34.19804 | 139.53262 | 4865 ft | 106 kts | 171° |
| 2026-04-22 19:53 | 34.19072 | 139.53430 | 4864 ft | 106 kts | 172° |
| 2026-04-22 19:53 | 34.18350 | 139.53597 | 4862 ft | 106 kts | 172° |
| 2026-04-22 19:54 | 34.17617 | 139.53764 | 4860 ft | 107 kts | 172° |
| 2026-04-22 19:54 | 34.16885 | 139.53931 | 4857 ft | 107 kts | 172° |
| 2026-04-22 19:54 | 34.16148 | 139.54100 | 4856 ft | 107 kts | 173° |
| 2026-04-22 19:54 | 34.15418 | 139.54265 | 4858 ft | 107 kts | 172° |
| 2026-04-22 19:55 | 34.14688 | 139.54431 | 4857 ft | 107 kts | 172° |
| 2026-04-22 19:55 | 34.13951 | 139.54599 | 4857 ft | 107 kts | 172° |
| 2026-04-22 19:55 | 34.13217 | 139.54765 | 4854 ft | 107 kts | 172° |
| 2026-04-22 19:55 | 34.12483 | 139.54935 | 4854 ft | 107 kts | 172° |
| 2026-04-22 19:56 | 34.11748 | 139.55103 | 4855 ft | 107 kts | 172° |
| 2026-04-22 19:56 | 34.11014 | 139.55269 | 4856 ft | 107 kts | 171° |
| 2026-04-22 19:56 | 34.10276 | 139.55435 | 4857 ft | 107 kts | 172° |
| 2026-04-22 19:56 | 34.09540 | 139.55605 | 4857 ft | 107 kts | 171° |
| 2026-04-22 19:57 | 34.08809 | 139.55772 | 4855 ft | 107 kts | 171° |
| 2026-04-22 19:57 | 34.08078 | 139.55940 | 4854 ft | 107 kts | 172° |
| 2026-04-22 19:57 | 34.07346 | 139.56110 | 4856 ft | 106 kts | 172° |
| 2026-04-22 19:57 | 34.06641 | 139.56409 | 4857 ft | 108 kts | 163° |
| 2026-04-22 19:58 | 34.05938 | 139.56726 | 4855 ft | 108 kts | 162° |
| 2026-04-22 19:58 | 34.05223 | 139.57054 | 4853 ft | 108 kts | 162° |
| 2026-04-22 19:58 | 34.04517 | 139.57382 | 4855 ft | 108 kts | 162° |
| 2026-04-22 19:58 | 34.03822 | 139.57704 | 4853 ft | 108 kts | 162° |
| 2026-04-22 19:59 | 34.03117 | 139.58031 | 4854 ft | 108 kts | 162° |
| 2026-04-22 20:00 | 33.98885 | 139.59999 | 4855 ft | 107 kts | 162° |
| 2026-04-22 20:00 | 33.98184 | 139.60326 | 4855 ft | 107 kts | 162° |
| 2026-04-22 20:01 | 33.97475 | 139.60658 | 4855 ft | 108 kts | 162° |
| 2026-04-22 20:01 | 33.96781 | 139.60982 | 4855 ft | 108 kts | 162° |
| 2026-04-22 20:01 | 33.96070 | 139.61311 | 4854 ft | 108 kts | 162° |
| 2026-04-22 20:01 | 33.95367 | 139.61638 | 4855 ft | 108 kts | 162° |
| 2026-04-22 20:02 | 33.94658 | 139.61968 | 4856 ft | 108 kts | 162° |
| 2026-04-22 20:02 | 33.93948 | 139.62299 | 4855 ft | 109 kts | 161° |
| 2026-04-22 20:02 | 33.93247 | 139.62625 | 4855 ft | 109 kts | 162° |
| 2026-04-22 20:02 | 33.92540 | 139.62956 | 4857 ft | 109 kts | 162° |
| 2026-04-22 20:03 | 33.91833 | 139.63284 | 4857 ft | 109 kts | 161° |
| 2026-04-22 20:03 | 33.91122 | 139.63615 | 4856 ft | 109 kts | 162° |
| 2026-04-22 20:03 | 33.90411 | 139.63951 | 4856 ft | 108 kts | 162° |
| 2026-04-22 20:03 | 33.89708 | 139.64276 | 4856 ft | 108 kts | 162° |
| 2026-04-22 20:04 | 33.89003 | 139.64604 | 4859 ft | 108 kts | 162° |
| 2026-04-22 20:04 | 33.88297 | 139.64931 | 4859 ft | 108 kts | 162° |
| 2026-04-22 20:04 | 33.87590 | 139.65259 | 4859 ft | 109 kts | 162° |
| 2026-04-22 20:04 | 33.86888 | 139.65585 | 4860 ft | 109 kts | 162° |
| 2026-04-22 20:05 | 33.86182 | 139.65916 | 4858 ft | 109 kts | 162° |
| 2026-04-22 20:05 | 33.85474 | 139.66244 | 4859 ft | 108 kts | 162° |
| 2026-04-22 20:05 | 33.84769 | 139.66573 | 4859 ft | 109 kts | 162° |
| 2026-04-22 20:05 | 33.84060 | 139.66901 | 4859 ft | 108 kts | 162° |
| 2026-04-22 20:06 | 33.83349 | 139.67233 | 4860 ft | 108 kts | 163° |
| 2026-04-22 20:06 | 33.82646 | 139.67560 | 4861 ft | 109 kts | 162° |
| 2026-04-22 20:06 | 33.81939 | 139.67886 | 4860 ft | 109 kts | 162° |
| 2026-04-22 20:06 | 33.81226 | 139.68218 | 4861 ft | 109 kts | 162° |
| 2026-04-22 20:07 | 33.80520 | 139.68545 | 4862 ft | 109 kts | 162° |
| 2026-04-22 20:07 | 33.79814 | 139.68877 | 4862 ft | 109 kts | 162° |
| 2026-04-22 20:07 | 33.79099 | 139.69208 | 4862 ft | 109 kts | 163° |
| 2026-04-22 20:07 | 33.78394 | 139.69533 | 4863 ft | 109 kts | 162° |
| 2026-04-22 20:08 | 33.77683 | 139.69864 | 4862 ft | 109 kts | 162° |
| 2026-04-22 20:08 | 33.76973 | 139.70193 | 4862 ft | 109 kts | 163° |
| 2026-04-22 20:08 | 33.76261 | 139.70522 | 4865 ft | 109 kts | 163° |
| 2026-04-22 20:08 | 33.75553 | 139.70848 | 4867 ft | 109 kts | 162° |
| 2026-04-22 20:09 | 33.74844 | 139.71179 | 4871 ft | 109 kts | 163° |
| 2026-04-22 20:09 | 33.74136 | 139.71507 | 4875 ft | 109 kts | 162° |
| 2026-04-22 20:09 | 33.73416 | 139.71838 | 4877 ft | 110 kts | 162° |
| 2026-04-22 20:09 | 33.72703 | 139.72172 | 4876 ft | 109 kts | 163° |
| 2026-04-22 20:10 | 33.71990 | 139.72502 | 4877 ft | 109 kts | 162° |
| 2026-04-22 20:10 | 33.71280 | 139.72832 | 4877 ft | 109 kts | 162° |
| 2026-04-22 20:10 | 33.70573 | 139.73161 | 4875 ft | 109 kts | 163° |
| 2026-04-22 20:10 | 33.69861 | 139.73489 | 4872 ft | 109 kts | 162° |
| 2026-04-22 20:11 | 33.69147 | 139.73819 | 4872 ft | 109 kts | 163° |
| 2026-04-22 20:11 | 33.68437 | 139.74147 | 4871 ft | 110 kts | 163° |
| 2026-04-22 20:11 | 33.67726 | 139.74477 | 4871 ft | 110 kts | 163° |
| 2026-04-22 20:11 | 33.67015 | 139.74806 | 4870 ft | 109 kts | 163° |
| 2026-04-22 20:12 | 33.66303 | 139.75137 | 4870 ft | 109 kts | 163° |
| 2026-04-22 20:12 | 33.65592 | 139.75464 | 4871 ft | 109 kts | 163° |
| 2026-04-22 20:12 | 33.65113 | 139.75685 | 4872 ft | 109 kts | 162° |
| 2026-04-22 20:12 | 33.64163 | 139.76123 | 4872 ft | 109 kts | 163° |
| 2026-04-22 20:13 | 33.63451 | 139.76453 | 4873 ft | 110 kts | 163° |
| 2026-04-22 20:13 | 33.62743 | 139.76782 | 4872 ft | 110 kts | 162° |
| 2026-04-22 20:13 | 33.62025 | 139.77113 | 4873 ft | 110 kts | 162° |
| 2026-04-22 20:13 | 33.61315 | 139.77441 | 4873 ft | 110 kts | 162° |
| 2026-04-22 20:14 | 33.60595 | 139.77773 | 4866 ft | 110 kts | 163° |
| 2026-04-22 20:14 | 33.59870 | 139.78105 | 4831 ft | 112 kts | 163° |
| 2026-04-22 20:14 | 33.59143 | 139.78441 | 4774 ft | 114 kts | 162° |
| 2026-04-22 20:14 | 33.58395 | 139.78783 | 4663 ft | 117 kts | 162° |
| 2026-04-22 20:15 | 33.57626 | 139.79137 | 4548 ft | 118 kts | 162° |
| 2026-04-22 20:15 | 33.56856 | 139.79492 | 4431 ft | 119 kts | 162° |
| 2026-04-22 20:15 | 33.56090 | 139.79848 | 4316 ft | 119 kts | 161° |
| 2026-04-22 20:15 | 33.55332 | 139.80196 | 4272 ft | 114 kts | 161° |
| 2026-04-22 20:16 | 33.54598 | 139.80534 | 4266 ft | 111 kts | 162° |
| 2026-04-22 20:16 | 33.53885 | 139.80865 | 4264 ft | 108 kts | 162° |
| 2026-04-22 20:16 | 33.53189 | 139.81171 | 4254 ft | 105 kts | 167° |
| 2026-04-22 20:16 | 33.52496 | 139.81203 | 4259 ft | 99 kts | 183° |
| 2026-04-22 20:17 | 33.51807 | 139.81177 | 4265 ft | 98 kts | 184° |
| 2026-04-22 20:17 | 33.51159 | 139.81145 | 4264 ft | 98 kts | 184° |
| 2026-04-22 20:17 | 33.50514 | 139.81113 | 4266 ft | 98 kts | 185° |
| 2026-04-22 20:17 | 33.49869 | 139.81078 | 4265 ft | 98 kts | 184° |
| 2026-04-22 20:18 | 33.49209 | 139.81043 | 4266 ft | 98 kts | 185° |
| 2026-04-22 20:18 | 33.48519 | 139.81003 | 4266 ft | 98 kts | 184° |
| 2026-04-22 20:18 | 33.47835 | 139.80966 | 4263 ft | 98 kts | 185° |
| 2026-04-22 20:18 | 33.47149 | 139.80928 | 4264 ft | 98 kts | 185° |
| 2026-04-22 20:19 | 33.46470 | 139.80890 | 4264 ft | 97 kts | 185° |
| 2026-04-22 20:19 | 33.45795 | 139.80856 | 4264 ft | 98 kts | 185° |
| 2026-04-22 20:19 | 33.45114 | 139.80823 | 4266 ft | 98 kts | 185° |
| 2026-04-22 20:19 | 33.44424 | 139.80786 | 4265 ft | 98 kts | 185° |
| 2026-04-22 20:20 | 33.43750 | 139.80748 | 4265 ft | 98 kts | 185° |
| 2026-04-22 20:20 | 33.43057 | 139.80707 | 4266 ft | 99 kts | 185° |
| 2026-04-22 20:20 | 33.42373 | 139.80667 | 4266 ft | 99 kts | 185° |
| 2026-04-22 20:20 | 33.41679 | 139.80626 | 4265 ft | 99 kts | 185° |
| 2026-04-22 20:21 | 33.40993 | 139.80586 | 4266 ft | 99 kts | 185° |
| 2026-04-22 20:21 | 33.40310 | 139.80543 | 4267 ft | 99 kts | 184° |
| 2026-04-22 20:21 | 33.39623 | 139.80505 | 4265 ft | 98 kts | 185° |
| 2026-04-22 20:21 | 33.38930 | 139.80464 | 4267 ft | 98 kts | 185° |
| 2026-04-22 20:22 | 33.38248 | 139.80408 | 4257 ft | 98 kts | 192° |
| 2026-04-22 20:22 | 33.37651 | 139.80058 | 4257 ft | 92 kts | 210° |
| 2026-04-22 20:22 | 33.37113 | 139.79672 | 4265 ft | 90 kts | 211° |
| 2026-04-22 20:22 | 33.36574 | 139.79277 | 4265 ft | 90 kts | 211° |
| 2026-04-22 20:23 | 33.36032 | 139.78874 | 4232 ft | 92 kts | 211° |
| 2026-04-22 20:23 | 33.35479 | 139.78461 | 4199 ft | 93 kts | 211° |
| 2026-04-22 20:23 | 33.34934 | 139.78052 | 4166 ft | 93 kts | 211° |
| 2026-04-22 20:23 | 33.34381 | 139.77635 | 4135 ft | 93 kts | 211° |
| 2026-04-22 20:24 | 33.33827 | 139.77217 | 4102 ft | 94 kts | 211° |
| 2026-04-22 20:24 | 33.33267 | 139.76802 | 4060 ft | 96 kts | 209° |
| 2026-04-22 20:24 | 33.32656 | 139.76450 | 3964 ft | 99 kts | 201° |
| 2026-04-22 20:24 | 33.31988 | 139.76199 | 3858 ft | 101 kts | 193° |
| 2026-04-22 20:25 | 33.31319 | 139.75966 | 3712 ft | 103 kts | 206° |
| 2026-04-22 20:25 | 33.30804 | 139.75356 | 3550 ft | 104 kts | 221° |
| 2026-04-22 20:25 | 33.30273 | 139.74783 | 3440 ft | 103 kts | 216° |
| 2026-04-22 20:25 | 33.29705 | 139.74252 | 3329 ft | 102 kts | 213° |
| 2026-04-22 20:26 | 33.29130 | 139.73763 | 3200 ft | 101 kts | 211° |
| 2026-04-22 20:26 | 33.28551 | 139.73292 | 3069 ft | 100 kts | 210° |
| 2026-04-22 20:26 | 33.27971 | 139.72835 | 2941 ft | 100 kts | 210° |
| 2026-04-22 20:26 | 33.27381 | 139.72380 | 2819 ft | 101 kts | 210° |
| 2026-04-22 20:27 | 33.26792 | 139.71928 | 2696 ft | 100 kts | 210° |
| 2026-04-22 20:27 | 33.26197 | 139.71475 | 2574 ft | 100 kts | 209° |
| 2026-04-22 20:27 | 33.25606 | 139.71028 | 2451 ft | 100 kts | 209° |
| 2026-04-22 20:27 | 33.25022 | 139.70586 | 2333 ft | 100 kts | 209° |
| 2026-04-22 20:28 | 33.24437 | 139.70143 | 2249 ft | 90 kts | 205° |
| 2026-04-22 20:28 | 33.24125 | 139.69897 | 2646 ft | 52 kts | 212° |
| 2026-04-22 20:28 | 33.23756 | 139.69614 | 2628 ft | 73 kts | 210° |
| 2026-04-22 20:28 | 33.23280 | 139.69257 | 2554 ft | 86 kts | 209° |
| 2026-04-22 20:29 | 33.22740 | 139.68854 | 2446 ft | 93 kts | 208° |
| 2026-04-22 20:29 | 33.22184 | 139.68439 | 2331 ft | 96 kts | 208° |
| 2026-04-22 20:29 | 33.21640 | 139.68027 | 2394 ft | 70 kts | 212° |
| 2026-04-22 20:29 | 33.21228 | 139.67714 | 2414 ft | 78 kts | 209° |
| 2026-04-22 20:30 | 33.20731 | 139.67342 | 2315 ft | 89 kts | 208° |
| 2026-04-22 20:30 | 33.20197 | 139.66943 | 2198 ft | 94 kts | 208° |
| 2026-04-22 20:30 | 33.19647 | 139.66531 | 2075 ft | 96 kts | 208° |
| 2026-04-22 20:30 | 33.19081 | 139.66107 | 1983 ft | 94 kts | 208° |
| 2026-04-22 20:31 | 33.18552 | 139.65707 | 1971 ft | 89 kts | 208° |
| 2026-04-22 20:31 | 33.18044 | 139.65326 | 1969 ft | 85 kts | 208° |
| 2026-04-22 20:31 | 33.17556 | 139.64964 | 1972 ft | 83 kts | 208° |
| 2026-04-22 20:31 | 33.17070 | 139.64598 | 1973 ft | 83 kts | 209° |
| 2026-04-22 20:32 | 33.16591 | 139.64233 | 1969 ft | 82 kts | 209° |
| 2026-04-22 20:32 | 33.16118 | 139.63872 | 1970 ft | 82 kts | 210° |
| 2026-04-22 20:32 | 33.15629 | 139.63496 | 1973 ft | 88 kts | 210° |
| 2026-04-22 20:32 | 33.15110 | 139.63098 | 1970 ft | 91 kts | 210° |
| 2026-04-22 20:33 | 33.14573 | 139.62691 | 1965 ft | 91 kts | 210° |
| 2026-04-22 20:33 | 33.14034 | 139.62283 | 1968 ft | 92 kts | 209° |
| 2026-04-22 20:33 | 33.13500 | 139.61881 | 1966 ft | 92 kts | 209° |
| 2026-04-22 20:33 | 33.12955 | 139.61493 | 1969 ft | 91 kts | 204° |
| 2026-04-22 20:34 | 33.12369 | 139.61217 | 1971 ft | 92 kts | 196° |
| 2026-04-22 20:34 | 33.11752 | 139.61053 | 1973 ft | 93 kts | 187° |
| 2026-04-22 20:34 | 33.11143 | 139.61015 | 1975 ft | 93 kts | 178° |
| 2026-04-22 20:34 | 33.10493 | 139.61107 | 1975 ft | 95 kts | 169° |
| 2026-04-22 20:35 | 33.09857 | 139.61343 | 1974 ft | 96 kts | 159° |
| 2026-04-22 20:35 | 33.09264 | 139.61719 | 1977 ft | 96 kts | 148° |
| 2026-04-22 20:35 | 33.08744 | 139.62215 | 1977 ft | 98 kts | 139° |
| 2026-04-22 20:35 | 33.08302 | 139.62828 | 1975 ft | 100 kts | 128° |
| 2026-04-22 20:36 | 33.07959 | 139.63542 | 1974 ft | 102 kts | 117° |
| 2026-04-22 20:36 | 33.07732 | 139.64337 | 1974 ft | 103 kts | 104° |
| 2026-04-22 20:36 | 33.07642 | 139.65186 | 1953 ft | 106 kts | 93° |
| 2026-04-22 20:36 | 33.07698 | 139.66075 | 1900 ft | 110 kts | 80° |
| 2026-04-22 20:37 | 33.07908 | 139.66965 | 1838 ft | 109 kts | 71° |
| 2026-04-22 20:37 | 33.08153 | 139.67809 | 1785 ft | 108 kts | 70° |
| 2026-04-22 20:37 | 33.08411 | 139.68652 | 1726 ft | 108 kts | 69° |
| 2026-04-22 20:37 | 33.08721 | 139.69498 | 1590 ft | 115 kts | 65° |
| 2026-04-22 20:38 | 33.08984 | 139.70427 | 1373 ft | 120 kts | 75° |
| 2026-04-22 20:38 | 33.09183 | 139.71393 | 1214 ft | 117 kts | 73° |
| 2026-04-22 20:38 | 33.09410 | 139.72252 | 1206 ft | 106 kts | 72° |
| 2026-04-22 20:38 | 33.09700 | 139.73041 | 1194 ft | 99 kts | 57° |
| 2026-04-22 20:39 | 33.09984 | 139.73689 | 1328 ft | 81 kts | 67° |
| 2026-04-22 20:39 | 33.10180 | 139.74310 | 1323 ft | 78 kts | 65° |
| 2026-04-22 20:39 | 33.10395 | 139.74945 | 1202 ft | 87 kts | 66° |
| 2026-04-22 20:39 | 33.10595 | 139.75671 | 976 ft | 97 kts | 69° |
| 2026-04-22 20:40 | 33.10846 | 139.76457 | 606 ft | 105 kts | 61° |
| 2026-04-22 20:40 | 33.11103 | 139.77217 | 368 ft | 87 kts | 66° |
| 2026-04-22 20:40 | 33.11243 | 139.77759 | 341 ft | 48 kts | 68° |
| 2026-04-22 20:40 | 33.11319 | 139.78043 | 334 ft | 28 kts | 62° |
| 2026-04-22 20:41 | 33.11375 | 139.78168 | 297 ft | 6 kts | 62° |
| 2026-04-22 20:41 | 33.11414 | 139.78230 | 304 ft | 6 kts | 64° |
| 2026-04-22 20:41 | 33.11429 | 139.78305 | 310 ft | 11 kts | 29° |
| 2026-04-22 20:41 | 33.11479 | 139.78363 | 307 ft | 7 kts | 351° |
| 2026-04-22 20:42 | 33.11527 | 139.78332 | 306 ft | 6 kts | 1° |
| 2026-04-22 20:42 | 33.11570 | 139.78351 | 307 ft | 6 kts | 22° |
| 2026-04-22 20:42 | 33.11601 | 139.78381 | 307 ft | 4 kts | 28° |
| 2026-04-22 20:42 | 33.11627 | 139.78398 | 311 ft | 5 kts | 28° |
| 2026-04-22 20:43 | 33.11652 | 139.78415 | 308 ft | 2 kts | 52° |
| 2026-04-22 20:43 | 33.11663 | 139.78441 | 305 ft | 2 kts | 56° |
| 2026-04-22 20:43 | 33.11671 | 139.78455 | 304 ft | 1 kts | 67° |
| 2026-04-22 20:43 | 33.11675 | 139.78461 | 303 ft | 0 kts | 60° |